createdAt,value
2023-01-08T00:00:03.986Z,97907.13
2023-01-08T00:01:10.458Z,97914.47
2023-01-08T00:02:11.891Z,97904.75
2023-01-08T00:03:14.311Z,97906.09
2023-01-08T00:04:17.914Z,97903.25
2023-01-08T00:05:19.320Z,97908.91
2023-01-08T00:06:23.463Z,97900.72
2023-01-08T00:07:24.874Z,97903.66
2023-01-08T00:08:26.288Z,97898.00
2023-01-08T00:09:28.275Z,97904.22
2023-01-08T00:10:29.700Z,97896.69
2023-01-08T00:11:31.123Z,97888.84
2023-01-08T00:12:32.617Z,97885.38
2023-01-08T00:13:35.113Z,97884.16
2023-01-08T00:14:36.517Z,97890.16
2023-01-08T00:15:38.045Z,97885.69
2023-01-08T00:16:39.514Z,97876.66
2023-01-08T00:17:40.975Z,97882.31
2023-01-08T00:18:43.709Z,97877.41
2023-01-08T00:19:45.143Z,97882.66
2023-01-08T00:20:47.091Z,97885.28
2023-01-08T00:21:48.528Z,97878.28
2023-01-08T00:22:51.407Z,97882.31
2023-01-08T00:23:53.121Z,97883.41
2023-01-08T00:24:54.554Z,97872.63
2023-01-08T00:25:56.094Z,97874.91
2023-01-08T00:26:57.511Z,97875.69
2023-01-08T00:27:58.913Z,97873.81
2023-01-08T00:29:00.770Z,97870.00
2023-01-08T00:30:02.176Z,97873.47
2023-01-08T00:31:04.779Z,97872.31
2023-01-08T00:32:06.227Z,97873.06
2023-01-08T00:33:07.692Z,97870.75
2023-01-08T00:34:09.502Z,97869.25
2023-01-08T00:35:10.936Z,97867.38
2023-01-08T00:36:18.437Z,97867.84
2023-01-08T00:37:20.548Z,97872.72
2023-01-08T00:38:28.661Z,97874.69
2023-01-08T00:39:30.282Z,97868.47
2023-01-08T00:40:33.434Z,97865.34
2023-01-08T00:41:34.845Z,97869.81
2023-01-08T00:42:36.253Z,97870.34
2023-01-08T00:43:38.130Z,97880.38
2023-01-08T00:44:39.573Z,97877.13
2023-01-08T00:45:42.292Z,97878.75
2023-01-08T00:46:43.733Z,97876.97
2023-01-08T00:47:45.173Z,97868.81
2023-01-08T00:48:47.024Z,97872.19
2023-01-08T00:49:48.693Z,97876.97
2023-01-08T00:50:50.227Z,97870.97
2023-01-08T00:51:51.651Z,97872.41
2023-01-08T00:52:53.646Z,97872.41
2023-01-08T00:53:55.429Z,97868.59
2023-01-08T00:54:56.845Z,97868.16
2023-01-08T00:56:07.063Z,97866.75
2023-01-08T00:57:08.493Z,97860.75
2023-01-08T00:58:11.007Z,97860.75
2023-01-08T00:59:12.752Z,97853.25
2023-01-08T01:00:15.598Z,97852.38
2023-01-08T01:01:17.137Z,97851.63
2023-01-08T01:02:18.658Z,97853.13
2023-01-08T01:03:20.269Z,97849.00
2023-01-08T01:04:21.710Z,97851.63
2023-01-08T01:05:23.388Z,97845.97
2023-01-08T01:06:24.992Z,97847.78
2023-01-08T01:07:26.396Z,97853.69
2023-01-08T01:08:28.302Z,97850.53
2023-01-08T01:09:29.811Z,97850.53
2023-01-08T01:10:31.224Z,97848.56
2023-01-08T01:11:32.675Z,97852.16
2023-01-08T01:12:34.538Z,97845.72
2023-01-08T01:13:36.261Z,97840.84
2023-01-08T01:14:38.570Z,97848.34
2023-01-08T01:15:39.972Z,97842.47
2023-01-08T01:16:42.706Z,97846.59
2023-01-08T01:17:45.325Z,97855.22
2023-01-08T01:18:47.142Z,97855.22
2023-01-08T01:19:48.576Z,97851.19
2023-01-08T01:20:50.009Z,97852.72
2023-01-08T01:21:51.615Z,97863.16
2023-01-08T01:22:53.131Z,97858.69
2023-01-08T01:23:57.423Z,97861.75
2023-01-08T01:24:59.763Z,97856.19
2023-01-08T01:26:01.365Z,97852.06
2023-01-08T01:27:05.965Z,97847.16
2023-01-08T01:28:07.810Z,97847.47
2023-01-08T01:29:10.257Z,97846.72
2023-01-08T01:30:12.091Z,97851.19
2023-01-08T01:31:14.537Z,97848.16
2023-01-08T01:32:16.084Z,97852.59
2023-01-08T01:33:17.462Z,97845.09
2023-01-08T01:34:19.183Z,97846.59
2023-01-08T01:35:20.640Z,97840.50
2023-01-08T01:36:26.192Z,97840.84
2023-01-08T01:37:27.956Z,97838.44
2023-01-08T01:38:29.737Z,97839.22
2023-01-08T01:39:31.455Z,97844.09
2023-01-08T01:40:32.891Z,97845.53
2023-01-08T01:41:45.357Z,97845.97
2023-01-08T01:42:46.841Z,97843.03
2023-01-08T01:43:48.587Z,97841.50
2023-01-08T01:44:50.004Z,97844.56
2023-01-08T01:45:51.525Z,97836.91
2023-01-08T01:46:53.001Z,97841.28
2023-01-08T01:47:59.210Z,97846.06
2023-01-08T01:49:06.960Z,97840.09
2023-01-08T01:50:13.087Z,97843.78
2023-01-08T01:51:14.612Z,97839.22
2023-01-08T01:52:16.061Z,97840.72
2023-01-08T01:53:34.904Z,97841.50
2023-01-08T01:54:36.732Z,97835.06
2023-01-08T01:55:40.552Z,97843.13
2023-01-08T01:56:43.632Z,97831.16
2023-01-08T01:57:46.276Z,97827.13
2023-01-08T01:58:48.029Z,97828.34
2023-01-08T01:59:49.594Z,97821.91
2023-01-08T02:00:52.736Z,97819.94
2023-01-08T02:01:56.422Z,97818.41
2023-01-08T02:02:57.989Z,97812.00
2023-01-08T02:03:59.840Z,97826.91
2023-01-08T02:05:02.252Z,97826.91
2023-01-08T02:06:08.509Z,97831.59
2023-01-08T02:07:12.597Z,97831.72
2023-01-08T02:08:21.724Z,97828.66
2023-01-08T02:09:43.619Z,97826.03
2023-01-08T02:10:56.119Z,97819.41
2023-01-08T02:12:19.071Z,97816.78
2023-01-08T02:13:29.627Z,97802.97
2023-01-08T02:14:42.531Z,97800.03
2023-01-08T02:15:59.160Z,97793.59
2023-01-08T02:17:06.496Z,97794.69
2023-01-08T02:18:13.675Z,97796.41
2023-01-08T02:19:34.164Z,97797.50
2023-01-08T02:20:39.440Z,97799.38
2023-01-08T02:21:59.578Z,97800.56
2023-01-08T02:23:23.271Z,97803.63
2023-01-08T02:24:42.876Z,97805.34
2023-01-08T02:26:12.447Z,97798.72
2023-01-08T02:27:17.027Z,97801.75
2023-01-08T02:28:19.745Z,97805.81
2023-01-08T02:29:25.372Z,97809.81
2023-01-08T02:30:27.241Z,97808.28
2023-01-08T02:31:30.894Z,97805.34
2023-01-08T02:32:39.043Z,97804.16
2023-01-08T02:33:40.473Z,97803.06
2023-01-08T02:34:42.172Z,97795.56
2023-01-08T02:35:54.766Z,97791.41
2023-01-08T02:36:57.203Z,97788.78
2023-01-08T02:37:58.640Z,97787.28
2023-01-08T02:39:28.096Z,97783.50
2023-01-08T02:40:38.416Z,97791.31
2023-01-08T02:41:54.995Z,97786.09
2023-01-08T02:43:08.910Z,97790.66
2023-01-08T02:44:15.537Z,97788.38
2023-01-08T02:45:40.434Z,97790.53
2023-01-08T02:46:42.018Z,97791.22
2023-01-08T02:48:02.480Z,97786.19
2023-01-08T02:49:11.630Z,97797.50
2023-01-08T02:50:13.260Z,97796.63
2023-01-08T02:51:24.204Z,97795.53
2023-01-08T02:52:29.486Z,97794.56
2023-01-08T02:53:36.259Z,97786.41
2023-01-08T02:54:40.048Z,97787.47
2023-01-08T02:55:45.100Z,97779.63
2023-01-08T02:56:53.213Z,97782.94
2023-01-08T02:57:55.011Z,97779.84
2023-01-08T02:58:58.580Z,97781.72
2023-01-08T03:00:00.341Z,97781.28
2023-01-08T03:01:08.203Z,97777.25
2023-01-08T03:02:11.079Z,97778.78
2023-01-08T03:03:15.748Z,97775.84
2023-01-08T03:04:20.079Z,97777.38
2023-01-08T03:05:27.986Z,97773.22
2023-01-08T03:06:30.191Z,97776.06
2023-01-08T03:07:31.988Z,97775.94
2023-01-08T03:08:40.812Z,97783.00
2023-01-08T03:09:43.134Z,97789.97
2023-01-08T03:10:49.963Z,97785.09
2023-01-08T03:12:04.987Z,97784.00
2023-01-08T03:13:13.079Z,97783.34
2023-01-08T03:14:28.370Z,97782.59
2023-01-08T03:15:51.758Z,97781.38
2023-01-08T03:17:00.926Z,97780.16
2023-01-08T03:18:06.220Z,97778.44
2023-01-08T03:19:23.085Z,97777.38
2023-01-08T03:20:25.584Z,97779.97
2023-01-08T03:21:27.344Z,97778.56
2023-01-08T03:22:32.519Z,97774.53
2023-01-08T03:23:35.970Z,97776.50
2023-01-08T03:24:39.955Z,97769.41
2023-01-08T03:25:46.016Z,97761.28
2023-01-08T03:26:50.319Z,97753.75
2023-01-08T03:27:56.874Z,97758.22
2023-01-08T03:28:59.133Z,97763.13
2023-01-08T03:30:01.556Z,97764.19
2023-01-08T03:31:03.462Z,97754.41
2023-01-08T03:32:09.699Z,97745.06
2023-01-08T03:33:13.694Z,97745.25
2023-01-08T03:34:16.345Z,97734.50
2023-01-08T03:35:22.505Z,97739.72
2023-01-08T03:36:28.233Z,97744.19
2023-01-08T03:37:35.623Z,97737.41
2023-01-08T03:38:43.765Z,97733.75
2023-01-08T03:39:56.511Z,97730.81
2023-01-08T03:41:04.801Z,97730.16
2023-01-08T03:42:09.243Z,97731.34
2023-01-08T03:43:10.777Z,97735.16
2023-01-08T03:44:12.208Z,97736.47
2023-01-08T03:45:13.986Z,97730.59
2023-01-08T03:46:21.587Z,97728.28
2023-01-08T03:47:24.860Z,97722.00
2023-01-08T03:48:29.597Z,97722.00
2023-01-08T03:49:31.974Z,97728.28
2023-01-08T03:50:34.100Z,97716.00
2023-01-08T03:51:46.799Z,97718.59
2023-01-08T03:52:48.296Z,97719.06
2023-01-08T03:53:54.266Z,97713.28
2023-01-08T03:54:56.513Z,97708.81
2023-01-08T03:55:58.668Z,97705.53
2023-01-08T03:57:00.115Z,97703.72
2023-01-08T03:58:01.570Z,97708.50
2023-01-08T03:59:03.001Z,97704.25
2023-01-08T04:00:05.478Z,97710.69
2023-01-08T04:01:07.007Z,97701.97
2023-01-08T04:02:08.785Z,97705.69
2023-01-08T04:03:10.364Z,97703.50
2023-01-08T04:04:12.292Z,97703.50
2023-01-08T04:05:14.124Z,97699.78
2023-01-08T04:06:15.523Z,97692.41
2023-01-08T04:07:16.928Z,97686.97
2023-01-08T04:08:18.371Z,97688.25
2023-01-08T04:09:19.890Z,97679.44
2023-01-08T04:10:21.298Z,97677.22
2023-01-08T04:11:22.769Z,97676.59
2023-01-08T04:12:24.471Z,97680.41
2023-01-08T04:13:25.922Z,97686.69
2023-01-08T04:14:27.492Z,97689.22
2023-01-08T04:15:29.380Z,97696.19
2023-01-08T04:16:31.706Z,97692.81
2023-01-08T04:17:33.104Z,97687.91
2023-01-08T04:18:34.981Z,97686.06
2023-01-08T04:19:36.351Z,97683.44
2023-01-08T04:20:38.061Z,97682.38
2023-01-08T04:21:39.900Z,97683.13
2023-01-08T04:22:41.331Z,97685.41
2023-01-08T04:23:42.749Z,97684.31
2023-01-08T04:24:44.269Z,97691.84
2023-01-08T04:25:45.977Z,97695.09
2023-01-08T04:26:47.721Z,97696.31
2023-01-08T04:27:49.165Z,97691.91
2023-01-08T04:28:50.545Z,97696.50
2023-01-08T04:29:52.255Z,97693.56
2023-01-08T04:30:53.712Z,97697.38
2023-01-08T04:31:55.145Z,97702.59
2023-01-08T04:32:56.912Z,97704.44
2023-01-08T04:33:58.364Z,97706.63
2023-01-08T04:34:59.857Z,97706.53
2023-01-08T04:36:02.123Z,97701.63
2023-01-08T04:37:03.655Z,97700.84
2023-01-08T04:38:05.196Z,97697.81
2023-01-08T04:39:07.620Z,97689.22
2023-01-08T04:40:09.995Z,97688.03
2023-01-08T04:41:11.470Z,97686.16
2023-01-08T04:42:12.864Z,97681.28
2023-01-08T04:43:14.276Z,97682.78
2023-01-08T04:44:15.959Z,97683.56
2023-01-08T04:45:17.443Z,97689.53
2023-01-08T04:46:18.934Z,97690.22
2023-01-08T04:47:20.441Z,97696.09
2023-01-08T04:48:21.890Z,97709.03
2023-01-08T04:49:23.415Z,97700.44
2023-01-08T04:50:26.506Z,97704.13
2023-01-08T04:51:27.920Z,97699.69
2023-01-08T04:52:29.356Z,97697.41
2023-01-08T04:53:34.340Z,97710.34
2023-01-08T04:54:35.730Z,97706.97
2023-01-08T04:55:39.634Z,97699.56
2023-01-08T04:56:41.188Z,97685.84
2023-01-08T04:57:42.679Z,97686.41
2023-01-08T04:58:44.173Z,97688.78
2023-01-08T04:59:45.585Z,97687.69
2023-01-08T05:00:47.507Z,97684.66
2023-01-08T05:01:49.051Z,97677.91
2023-01-08T05:02:50.637Z,97672.00
2023-01-08T05:03:57.091Z,97678.09
2023-01-08T05:04:58.833Z,97680.41
2023-01-08T05:06:00.697Z,97669.97
2023-01-08T05:07:02.118Z,97666.91
2023-01-08T05:08:04.081Z,97662.44
2023-01-08T05:09:05.514Z,97660.50
2023-01-08T05:10:07.610Z,97656.03
2023-01-08T05:11:09.137Z,97662.13
2023-01-08T05:12:10.589Z,97659.84
2023-01-08T05:13:12.015Z,97658.00
2023-01-08T05:14:13.489Z,97667.34
2023-01-08T05:15:15.316Z,97656.91
2023-01-08T05:16:17.541Z,97672.16
2023-01-08T05:17:19.061Z,97653.94
2023-01-08T05:18:20.455Z,97652.88
2023-01-08T05:19:21.856Z,97650.34
2023-01-08T05:20:23.302Z,97640.00
2023-01-08T05:21:24.878Z,97640.00
2023-01-08T05:22:26.479Z,97647.44
2023-01-08T05:23:29.215Z,97641.75
2023-01-08T05:24:30.622Z,97642.53
2023-01-08T05:25:32.408Z,97649.59
2023-01-08T05:26:33.848Z,97645.13
2023-01-08T05:27:35.255Z,97651.13
2023-01-08T05:28:36.741Z,97655.16
2023-01-08T05:29:38.499Z,97660.38
2023-01-08T05:30:39.903Z,97657.44
2023-01-08T05:31:41.318Z,97649.94
2023-01-08T05:32:42.744Z,97653.72
2023-01-08T05:33:44.404Z,97657.97
2023-01-08T05:34:46.236Z,97654.28
2023-01-08T05:35:47.677Z,97657.97
2023-01-08T05:36:49.116Z,97667.88
2023-01-08T05:37:50.558Z,97663.34
2023-01-08T05:38:52.099Z,97668.22
2023-01-08T05:39:53.562Z,97667.56
2023-01-08T05:40:55.035Z,97661.66
2023-01-08T05:41:56.561Z,97664.28
2023-01-08T05:42:59.772Z,97663.97
2023-01-08T05:44:01.648Z,97662.97
2023-01-08T05:45:08.126Z,97661.88
2023-01-08T05:46:09.620Z,97656.66
2023-01-08T05:47:11.029Z,97651.22
2023-01-08T05:48:12.424Z,97649.78
2023-01-08T05:49:16.783Z,97647.59
2023-01-08T05:50:18.368Z,97651.38
2023-01-08T05:51:19.785Z,97656.53
2023-01-08T05:52:21.185Z,97650.22
2023-01-08T05:53:22.820Z,97656.31
2023-01-08T05:54:24.519Z,97653.25
2023-01-08T05:55:25.916Z,97655.50
2023-01-08T05:56:27.329Z,97643.00
2023-01-08T05:57:28.724Z,97650.91
2023-01-08T05:58:30.870Z,97652.47
2023-01-08T05:59:32.693Z,97642.09
2023-01-08T06:00:35.619Z,97644.38
2023-01-08T06:01:37.122Z,97640.31
2023-01-08T06:02:38.837Z,97648.28
2023-01-08T06:03:40.373Z,97640.44
2023-01-08T06:04:42.117Z,97651.22
2023-01-08T06:05:43.503Z,97641.53
2023-01-08T06:06:44.891Z,97640.66
2023-01-08T06:07:46.299Z,97646.66
2023-01-08T06:08:47.824Z,97641.44
2023-01-08T06:09:49.548Z,97640.78
2023-01-08T06:10:50.986Z,97624.75
2023-01-08T06:11:53.110Z,97636.31
2023-01-08T06:12:55.458Z,97628.88
2023-01-08T06:13:56.890Z,97636.72
2023-01-08T06:14:58.287Z,97638.91
2023-01-08T06:16:01.123Z,97635.09
2023-01-08T06:17:02.558Z,97635.84
2023-01-08T06:18:04.470Z,97630.31
2023-01-08T06:19:06.362Z,97630.63
2023-01-08T06:20:08.647Z,97624.50
2023-01-08T06:21:10.076Z,97616.69
2023-01-08T06:22:11.513Z,97612.16
2023-01-08T06:23:12.967Z,97609.88
2023-01-08T06:24:14.758Z,97609.97
2023-01-08T06:25:16.193Z,97615.19
2023-01-08T06:26:17.589Z,97617.31
2023-01-08T06:27:18.966Z,97619.88
2023-01-08T06:28:20.365Z,97617.91
2023-01-08T06:29:21.909Z,97619.31
2023-01-08T06:30:23.359Z,97616.16
2023-01-08T06:31:24.893Z,97623.00
2023-01-08T06:32:26.376Z,97614.94
2023-01-08T06:33:28.968Z,97618.25
2023-01-08T06:34:30.421Z,97624.53
2023-01-08T06:35:31.904Z,97621.94
2023-01-08T06:36:33.418Z,97621.63
2023-01-08T06:37:34.912Z,97628.56
2023-01-08T06:38:36.945Z,97632.09
2023-01-08T06:39:38.381Z,97623.16
2023-01-08T06:40:39.801Z,97625.72
2023-01-08T06:41:42.522Z,97626.78
2023-01-08T06:42:44.574Z,97629.06
2023-01-08T06:43:46.356Z,97628.31
2023-01-08T06:44:47.799Z,97626.53
2023-01-08T06:45:57.914Z,97621.41
2023-01-08T06:46:59.316Z,97621.09
2023-01-08T06:48:01.935Z,97623.03
2023-01-08T06:49:03.828Z,97621.16
2023-01-08T06:50:06.775Z,97623.22
2023-01-08T06:51:08.395Z,97627.50
2023-01-08T06:52:10.378Z,97624.06
2023-01-08T06:53:11.765Z,97623.22
2023-01-08T06:54:13.783Z,97623.47
2023-01-08T06:55:15.301Z,97631.09
2023-01-08T06:56:16.675Z,97624.91
2023-01-08T06:57:18.119Z,97622.16
2023-01-08T06:58:19.493Z,97627.00
2023-01-08T06:59:21.481Z,97623.38
2023-01-08T07:00:25.735Z,97634.28
2023-01-08T07:01:27.245Z,97624.56
2023-01-08T07:02:28.832Z,97623.13
2023-01-08T07:03:30.718Z,97618.25
2023-01-08T07:04:32.146Z,97632.84
2023-01-08T07:05:33.763Z,97634.34
2023-01-08T07:06:35.293Z,97627.34
2023-01-08T07:07:36.696Z,97633.88
2023-01-08T07:08:38.440Z,97631.69
2023-01-08T07:09:43.256Z,97635.72
2023-01-08T07:10:45.015Z,97629.22
2023-01-08T07:11:46.444Z,97630.31
2023-01-08T07:12:48.679Z,97631.25
2023-01-08T07:13:51.045Z,97637.91
2023-01-08T07:14:52.418Z,97632.41
2023-01-08T07:15:53.910Z,97635.94
2023-01-08T07:16:55.351Z,97637.03
2023-01-08T07:17:56.774Z,97639.97
2023-01-08T07:18:58.665Z,97633.00
2023-01-08T07:20:00.180Z,97632.41
2023-01-08T07:21:03.181Z,97632.50
2023-01-08T07:22:04.531Z,97636.81
2023-01-08T07:23:09.581Z,97626.03
2023-01-08T07:24:11.349Z,97636.56
2023-01-08T07:25:12.737Z,97634.72
2023-01-08T07:26:14.140Z,97629.22
2023-01-08T07:27:15.537Z,97626.28
2023-01-08T07:28:16.961Z,97633.97
2023-01-08T07:29:18.415Z,97632.69
2023-01-08T07:30:29.313Z,97634.97
2023-01-08T07:31:31.541Z,97631.06
2023-01-08T07:32:32.977Z,97639.28
2023-01-08T07:33:34.830Z,97640.03
2023-01-08T07:34:36.514Z,97643.75
2023-01-08T07:35:39.073Z,97649.13
2023-01-08T07:36:40.521Z,97649.91
2023-01-08T07:37:43.198Z,97646.97
2023-01-08T07:38:44.917Z,97642.13
2023-01-08T07:39:46.428Z,97641.38
2023-01-08T07:40:48.338Z,97647.13
2023-01-08T07:41:49.753Z,97646.28
2023-01-08T07:43:00.661Z,97651.69
2023-01-08T07:44:02.476Z,97649.84
2023-01-08T07:45:04.469Z,97651.44
2023-01-08T07:46:05.953Z,97654.47
2023-01-08T07:47:07.430Z,97642.16
2023-01-08T07:48:16.104Z,97648.97
2023-01-08T07:49:17.552Z,97640.47
2023-01-08T07:50:18.935Z,97646.38
2023-01-08T07:51:20.471Z,97647.81
2023-01-08T07:52:21.975Z,97648.56
2023-01-08T07:53:23.374Z,97649.31
2023-01-08T07:54:24.778Z,97650.34
2023-01-08T07:55:27.771Z,97642.91
2023-01-08T07:56:29.074Z,97637.34
2023-01-08T07:57:30.469Z,97639.63
2023-01-08T07:58:32.269Z,97653.13
2023-01-08T07:59:33.695Z,97657.94
2023-01-08T08:00:35.324Z,97659.88
2023-01-08T08:01:36.815Z,97655.81
2023-01-08T08:02:38.352Z,97664.88
2023-01-08T08:03:41.074Z,97671.53
2023-01-08T08:04:42.507Z,97666.03
2023-01-08T08:05:43.958Z,97663.84
2023-01-08T08:06:45.335Z,97665.03
2023-01-08T08:07:47.045Z,97663.00
2023-01-08T08:08:48.500Z,97664.94
2023-01-08T08:09:49.957Z,97656.25
2023-01-08T08:10:51.366Z,97658.19
2023-01-08T08:11:52.745Z,97659.53
2023-01-08T08:12:54.484Z,97654.56
2023-01-08T08:13:56.765Z,97664.34
2023-01-08T08:14:58.252Z,97653.00
2023-01-08T08:16:04.550Z,97650.66
2023-01-08T08:17:05.995Z,97664.91
2023-01-08T08:18:07.916Z,97659.47
2023-01-08T08:19:11.713Z,97657.88
2023-01-08T08:20:13.149Z,97650.69
2023-01-08T08:21:14.560Z,97649.69
2023-01-08T08:22:16.295Z,97649.59
2023-01-08T08:23:17.703Z,97646.06
2023-01-08T08:24:19.149Z,97653.34
2023-01-08T08:25:20.561Z,97644.00
2023-01-08T08:26:22.302Z,97629.56
2023-01-08T08:27:25.038Z,97636.16
2023-01-08T08:28:26.504Z,97642.38
2023-01-08T08:29:30.968Z,97638.25
2023-01-08T08:30:34.383Z,97645.94
2023-01-08T08:31:36.426Z,97640.13
2023-01-08T08:32:38.459Z,97635.31
2023-01-08T08:33:39.949Z,97641.72
2023-01-08T08:34:41.441Z,97638.00
2023-01-08T08:35:50.101Z,97643.84
2023-01-08T08:36:51.540Z,97647.31
2023-01-08T08:37:54.619Z,97644.91
2023-01-08T08:38:56.417Z,97636.56
2023-01-08T08:39:57.825Z,97639.94
2023-01-08T08:40:59.384Z,97643.50
2023-01-08T08:42:00.874Z,97638.78
2023-01-08T08:43:04.284Z,97627.88
2023-01-08T08:44:06.002Z,97629.81
2023-01-08T08:45:08.145Z,97636.66
2023-01-08T08:46:09.639Z,97638.41
2023-01-08T08:47:11.947Z,97634.13
2023-01-08T08:48:14.020Z,97633.53
2023-01-08T08:49:15.451Z,97636.16
2023-01-08T08:50:17.209Z,97628.22
2023-01-08T08:51:18.660Z,97630.59
2023-01-08T08:52:20.138Z,97624.50
2023-01-08T08:53:21.570Z,97623.34
2023-01-08T08:54:23.015Z,97623.75
2023-01-08T08:55:24.449Z,97629.34
2023-01-08T08:56:28.769Z,97635.72
2023-01-08T08:57:30.533Z,97640.63
2023-01-08T08:58:31.999Z,97640.81
2023-01-08T08:59:33.411Z,97643.94
2023-01-08T09:00:34.878Z,97640.31
2023-01-08T09:01:36.440Z,97632.72
2023-01-08T09:02:38.281Z,97637.34
2023-01-08T09:03:39.972Z,97635.56
2023-01-08T09:04:41.443Z,97631.53
2023-01-08T09:05:43.535Z,97621.28
2023-01-08T09:06:44.948Z,97624.47
2023-01-08T09:07:46.749Z,97614.47
2023-01-08T09:08:48.156Z,97616.00
2023-01-08T09:09:49.735Z,97612.22
2023-01-08T09:10:51.174Z,97613.72
2023-01-08T09:11:54.165Z,97608.91
2023-01-08T09:12:55.547Z,97619.13
2023-01-08T09:13:56.993Z,97621.03
2023-01-08T09:14:58.443Z,97600.09
2023-01-08T09:16:00.809Z,97613.63
2023-01-08T09:17:02.339Z,97617.41
2023-01-08T09:18:04.770Z,97607.69
2023-01-08T09:19:16.185Z,97619.81
2023-01-08T09:20:17.707Z,97625.16
2023-01-08T09:21:19.114Z,97622.72
2023-01-08T09:22:21.069Z,97619.44
2023-01-08T09:23:22.591Z,97616.94
2023-01-08T09:24:24.041Z,97623.38
2023-01-08T09:25:25.778Z,97621.97
2023-01-08T09:26:28.718Z,97625.63
2023-01-08T09:27:30.395Z,97618.31
2023-01-08T09:28:32.583Z,97628.94
2023-01-08T09:29:34.008Z,97626.75
2023-01-08T09:30:35.847Z,97623.41
2023-01-08T09:31:37.367Z,97629.28
2023-01-08T09:32:38.961Z,97627.50
2023-01-08T09:33:40.381Z,97632.75
2023-01-08T09:34:41.813Z,97637.34
2023-01-08T09:35:44.410Z,97634.06
2023-01-08T09:36:45.824Z,97628.53
2023-01-08T09:37:51.495Z,97626.31
2023-01-08T09:38:52.900Z,97624.72
2023-01-08T09:40:02.187Z,97625.56
2023-01-08T09:41:09.716Z,97633.00
2023-01-08T09:42:13.709Z,97627.56
2023-01-08T09:43:19.787Z,97630.50
2023-01-08T09:44:26.709Z,97627.78
2023-01-08T09:45:31.873Z,97624.41
2023-01-08T09:46:34.540Z,97630.78
2023-01-08T09:47:39.794Z,97634.66
2023-01-08T09:48:42.398Z,97634.66
2023-01-08T09:49:46.452Z,97633.69
2023-01-08T09:50:48.397Z,97628.84
2023-01-08T09:51:49.923Z,97633.00
2023-01-08T09:52:52.175Z,97628.16
2023-01-08T09:53:58.647Z,97630.44
2023-01-08T09:55:00.747Z,97629.34
2023-01-08T09:56:10.003Z,97631.94
2023-01-08T09:57:19.057Z,97630.84
2023-01-08T09:58:35.690Z,97629.72
2023-01-08T09:59:38.262Z,97627.53
2023-01-08T10:00:39.781Z,97626.41
2023-01-08T10:01:41.785Z,97613.78
2023-01-08T10:02:44.696Z,97616.75
2023-01-08T10:03:50.773Z,97611.91
2023-01-08T10:04:58.560Z,97611.56
2023-01-08T10:06:00.063Z,97611.16
2023-01-08T10:07:23.247Z,97610.38
2023-01-08T10:08:24.661Z,97610.03
2023-01-08T10:09:29.333Z,97615.34
2023-01-08T10:10:32.331Z,97607.69
2023-01-08T10:11:39.121Z,97605.50
2023-01-08T10:12:41.409Z,97604.16
2023-01-08T10:13:48.038Z,97610.16
2023-01-08T10:14:49.994Z,97604.56
2023-01-08T10:15:52.395Z,97603.34
2023-01-08T10:17:01.769Z,97612.31
2023-01-08T10:18:07.111Z,97609.75
2023-01-08T10:19:09.805Z,97615.28
2023-01-08T10:20:13.476Z,97607.31
2023-01-08T10:21:15.481Z,97596.91
2023-01-08T10:22:20.665Z,97604.09
2023-01-08T10:23:25.627Z,97600.66
2023-01-08T10:24:35.634Z,97599.50
2023-01-08T10:25:52.519Z,97605.13
2023-01-08T10:26:54.512Z,97598.84
2023-01-08T10:28:03.474Z,97597.03
2023-01-08T10:29:17.408Z,97604.22
2023-01-08T10:30:34.643Z,97597.44
2023-01-08T10:31:45.959Z,97594.41
2023-01-08T10:32:53.510Z,97597.13
2023-01-08T10:33:55.672Z,97588.88
2023-01-08T10:34:58.075Z,97590.75
2023-01-08T10:36:03.275Z,97589.56
2023-01-08T10:37:15.355Z,97584.75
2023-01-08T10:38:33.347Z,97584.00
2023-01-08T10:39:35.895Z,97587.31
2023-01-08T10:40:45.776Z,97583.47
2023-01-08T10:41:48.568Z,97577.69
2023-01-08T10:42:51.863Z,97576.09
2023-01-08T10:44:00.365Z,97577.63
2023-01-08T10:45:12.245Z,97573.34
2023-01-08T10:46:23.023Z,97577.50
2023-01-08T10:47:25.779Z,97569.00
2023-01-08T10:48:34.104Z,97563.53
2023-01-08T10:49:41.791Z,97565.91
2023-01-08T10:50:43.519Z,97573.44
2023-01-08T10:51:53.205Z,97567.50
2023-01-08T10:53:06.466Z,97573.53
2023-01-08T10:54:23.575Z,97570.22
2023-01-08T10:55:36.051Z,97566.38
2023-01-08T10:56:43.232Z,97572.69
2023-01-08T10:57:55.392Z,97565.25
2023-01-08T10:58:57.028Z,97570.56
2023-01-08T10:59:58.552Z,97571.25
2023-01-08T11:01:23.841Z,97563.81
2023-01-08T11:02:38.268Z,97560.00
2023-01-08T11:03:41.143Z,97569.69
2023-01-08T11:04:43.719Z,97567.50
2023-01-08T11:05:46.011Z,97566.59
2023-01-08T11:06:48.248Z,97559.09
2023-01-08T11:07:57.256Z,97560.59
2023-01-08T11:09:07.250Z,97555.00
2023-01-08T11:10:22.804Z,97557.03
2023-01-08T11:11:31.657Z,97558.22
2023-01-08T11:12:41.759Z,97555.13
2023-01-08T11:14:13.773Z,97560.53
2023-01-08T11:15:15.128Z,97558.47
2023-01-08T11:16:16.680Z,97553.31
2023-01-08T11:17:18.164Z,97550.03
2023-01-08T11:18:23.321Z,97556.03
2023-01-08T11:19:33.088Z,97550.56
2023-01-08T11:20:35.584Z,97556.69
2023-01-08T11:21:37.102Z,97553.94
2023-01-08T11:22:38.518Z,97552.78
2023-01-08T11:23:40.282Z,97546.31
2023-01-08T11:24:42.315Z,97545.91
2023-01-08T11:25:58.681Z,97546.38
2023-01-08T11:27:06.140Z,97543.28
2023-01-08T11:28:15.488Z,97547.47
2023-01-08T11:29:23.063Z,97543.16
2023-01-08T11:30:27.688Z,97537.16
2023-01-08T11:31:46.269Z,97528.59
2023-01-08T11:33:10.018Z,97532.91
2023-01-08T11:34:26.359Z,97537.28
2023-01-08T11:35:33.413Z,97528.66
2023-01-08T11:36:38.662Z,97525.00
2023-01-08T11:37:51.848Z,97524.34
2023-01-08T11:38:53.676Z,97521.66
2023-01-08T11:39:56.542Z,97523.50
2023-01-08T11:41:26.204Z,97522.47
2023-01-08T11:42:57.070Z,97511.50
2023-01-08T11:44:17.190Z,97519.31
2023-01-08T11:45:21.646Z,97518.63
2023-01-08T11:46:44.849Z,97514.19
2023-01-08T11:48:01.559Z,97520.28
2023-01-08T11:49:18.975Z,97511.94
2023-01-08T11:50:29.655Z,97518.28
2023-01-08T11:53:17.475Z,97511.81
2023-01-08T11:54:45.945Z,97509.84
2023-01-08T11:56:35.305Z,97513.50
2023-01-08T11:58:07.080Z,97503.84
2023-01-08T11:59:49.915Z,97508.34
2023-01-08T12:01:08.418Z,97512.50
2023-01-08T12:02:30.834Z,97498.22
2023-01-08T12:03:41.434Z,97508.91
2023-01-08T12:05:01.624Z,97503.56
2023-01-08T12:06:27.725Z,97502.03
2023-01-08T12:07:50.088Z,97489.47
2023-01-08T12:09:10.679Z,97487.72
2023-01-08T12:10:24.627Z,97493.16
2023-01-08T12:11:29.251Z,97488.66
2023-01-08T12:12:36.486Z,97490.88
2023-01-08T12:14:06.885Z,97486.22
2023-01-08T12:15:11.143Z,97477.13
2023-01-08T12:16:27.869Z,97473.88
2023-01-08T12:18:05.257Z,97475.69
2023-01-08T12:19:44.023Z,97479.88
2023-01-08T12:20:54.331Z,97477.31
2023-01-08T12:21:58.545Z,97475.38
2023-01-08T12:23:30.048Z,97478.69
2023-01-08T12:24:50.147Z,97478.66
2023-01-08T12:26:32.857Z,97464.78
2023-01-08T12:28:01.803Z,97465.59
2023-01-08T12:29:15.434Z,97458.91
2023-01-08T12:30:51.317Z,97467.22
2023-01-08T12:32:15.237Z,97476.00
2023-01-08T12:33:26.250Z,97464.47
2023-01-08T12:34:53.266Z,97473.06
2023-01-08T12:36:00.165Z,97469.44
2023-01-08T12:37:31.114Z,97464.25
2023-01-08T12:38:36.928Z,97458.69
2023-01-08T12:39:47.764Z,97461.53
2023-01-08T12:40:55.068Z,97453.13
2023-01-08T12:42:08.871Z,97453.59
2023-01-08T12:43:26.186Z,97456.84